sensor_id;sensor_type;location;lat;lon;timestamp;pressure;altitude;pressure_sealevel;temperature;humidity
59831;BME280;45711;50.108;13.712;2023-07-13T00:00:12;97520.63;;;23.02;61.36
59831;BME280;45711;50.108;13.712;2023-07-13T00:02:41;97524.97;;;23.07;61.57
59831;BME280;45711;50.108;13.712;2023-07-13T00:05:07;97530.34;;;23.00;61.97
59831;BME280;45711;50.108;13.712;2023-07-13T00:07:33;97531.63;;;22.83;62.73
59831;BME280;45711;50.108;13.712;2023-07-13T00:09:59;97530.00;;;22.78;63.29
59831;BME280;45711;50.108;13.712;2023-07-13T00:12:27;97532.41;;;22.83;62.92
59831;BME280;45711;50.108;13.712;2023-07-13T00:14:56;97528.38;;;22.74;63.41
59831;BME280;45711;50.108;13.712;2023-07-13T00:17:23;97526.28;;;22.64;63.98
59831;BME280;45711;50.108;13.712;2023-07-13T00:19:48;97525.47;;;22.60;64.70
59831;BME280;45711;50.108;13.712;2023-07-13T00:22:14;97524.03;;;22.69;64.22
59831;BME280;45711;50.108;13.712;2023-07-13T00:24:39;97521.94;;;22.86;63.81
59831;BME280;45711;50.108;13.712;2023-07-13T00:27:07;97518.66;;;23.03;62.94
59831;BME280;45711;50.108;13.712;2023-07-13T00:29:32;97524.97;;;23.07;62.87
59831;BME280;45711;50.108;13.712;2023-07-13T00:32:01;97513.69;;;23.39;62.27
59831;BME280;45711;50.108;13.712;2023-07-13T00:34:27;97514.69;;;22.70;64.29
59831;BME280;45711;50.108;13.712;2023-07-13T00:36:52;97514.63;;;22.67;64.66
59831;BME280;45711;50.108;13.712;2023-07-13T00:39:22;97513.00;;;23.15;63.09
59831;BME280;45711;50.108;13.712;2023-07-13T00:41:48;97505.91;;;22.84;63.96
59831;BME280;45711;50.108;13.712;2023-07-13T00:44:14;97505.56;;;22.59;65.24
59831;BME280;45711;50.108;13.712;2023-07-13T00:46:41;97492.16;;;22.73;64.66
59831;BME280;45711;50.108;13.712;2023-07-13T00:49:15;97496.75;;;22.96;63.51
59831;BME280;45711;50.108;13.712;2023-07-13T00:51:45;97502.56;;;22.91;63.97
59831;BME280;45711;50.108;13.712;2023-07-13T00:54:14;97511.13;;;22.93;63.80
59831;BME280;45711;50.108;13.712;2023-07-13T00:56:41;97510.59;;;22.83;64.23
59831;BME280;45711;50.108;13.712;2023-07-13T00:59:10;97511.38;;;22.57;65.40
59831;BME280;45711;50.108;13.712;2023-07-13T01:01:37;97518.84;;;22.38;66.61
59831;BME280;45711;50.108;13.712;2023-07-13T01:04:03;97526.28;;;22.64;65.69
59831;BME280;45711;50.108;13.712;2023-07-13T01:06:30;97521.13;;;23.12;64.34
59831;BME280;45711;50.108;13.712;2023-07-13T01:08:56;97522.16;;;22.73;65.50
59831;BME280;45711;50.108;13.712;2023-07-13T01:11:23;97507.91;;;23.14;64.45
59831;BME280;45711;50.108;13.712;2023-07-13T01:13:49;97512.69;;;23.24;64.31
59831;BME280;45711;50.108;13.712;2023-07-13T01:16:19;97509.94;;;23.54;63.53
59831;BME280;45711;50.108;13.712;2023-07-13T01:18:47;97499.81;;;23.21;64.89
59831;BME280;45711;50.108;13.712;2023-07-13T01:21:14;97482.38;;;23.32;64.99
59831;BME280;45711;50.108;13.712;2023-07-13T01:23:39;97480.63;;;22.57;67.98
59831;BME280;45711;50.108;13.712;2023-07-13T01:26:05;97479.97;;;22.41;68.90
59831;BME280;45711;50.108;13.712;2023-07-13T01:28:31;97482.44;;;22.49;69.08
59831;BME280;45711;50.108;13.712;2023-07-13T01:30:58;97483.53;;;22.45;68.86
59831;BME280;45711;50.108;13.712;2023-07-13T01:33:24;97480.41;;;22.69;68.05
59831;BME280;45711;50.108;13.712;2023-07-13T01:35:50;97484.19;;;22.61;68.75
59831;BME280;45711;50.108;13.712;2023-07-13T01:38:21;97488.34;;;22.55;68.72
59831;BME280;45711;50.108;13.712;2023-07-13T01:40:48;97491.19;;;22.62;68.52
59831;BME280;45711;50.108;13.712;2023-07-13T01:45:39;97499.06;;;22.41;69.37
59831;BME280;45711;50.108;13.712;2023-07-13T01:48:05;97501.63;;;22.30;70.13
59831;BME280;45711;50.108;13.712;2023-07-13T01:50:32;97505.06;;;22.04;70.79
59831;BME280;45711;50.108;13.712;2023-07-13T01:52:57;97516.59;;;22.17;71.21
59831;BME280;45711;50.108;13.712;2023-07-13T01:55:24;97522.16;;;22.24;70.61
59831;BME280;45711;50.108;13.712;2023-07-13T01:57:50;97520.59;;;22.49;69.47
59831;BME280;45711;50.108;13.712;2023-07-13T02:00:16;97522.41;;;22.38;69.41
59831;BME280;45711;50.108;13.712;2023-07-13T02:02:42;97507.41;;;22.05;70.40
59831;BME280;45711;50.108;13.712;2023-07-13T02:05:08;97513.16;;;21.77;71.49
59831;BME280;45711;50.108;13.712;2023-07-13T02:07:34;97510.91;;;21.83;70.69
59831;BME280;45711;50.108;13.712;2023-07-13T02:09:59;97518.59;;;21.77;70.17
59831;BME280;45711;50.108;13.712;2023-07-13T02:12:26;97529.38;;;21.93;70.25
59831;BME280;45711;50.108;13.712;2023-07-13T02:14:52;97524.38;;;21.95;70.47
59831;BME280;45711;50.108;13.712;2023-07-13T02:17:17;97524.13;;;22.04;72.74
59831;BME280;45711;50.108;13.712;2023-07-13T02:19:43;97528.03;;;21.83;75.00
59831;BME280;45711;50.108;13.712;2023-07-13T02:22:08;97535.97;;;21.50;75.30
59831;BME280;45711;50.108;13.712;2023-07-13T02:24:34;97533.47;;;21.41;75.32
59831;BME280;45711;50.108;13.712;2023-07-13T02:27:00;97540.19;;;21.47;74.43
59831;BME280;45711;50.108;13.712;2023-07-13T02:29:27;97534.91;;;21.00;75.49
59831;BME280;45711;50.108;13.712;2023-07-13T02:31:52;97539.34;;;21.43;74.90
59831;BME280;45711;50.108;13.712;2023-07-13T02:34:18;97550.69;;;21.29;75.69
59831;BME280;45711;50.108;13.712;2023-07-13T02:36:43;97547.34;;;20.81;76.31
59831;BME280;45711;50.108;13.712;2023-07-13T02:39:11;97560.19;;;20.84;75.84
59831;BME280;45711;50.108;13.712;2023-07-13T02:41:37;97564.34;;;20.78;76.19
59831;BME280;45711;50.108;13.712;2023-07-13T02:44:03;97567.25;;;20.54;75.75
59831;BME280;45711;50.108;13.712;2023-07-13T02:46:30;97568.91;;;20.74;76.77
59831;BME280;45711;50.108;13.712;2023-07-13T02:48:56;97569.69;;;20.75;75.90
59831;BME280;45711;50.108;13.712;2023-07-13T02:51:21;97561.22;;;20.61;74.24
59831;BME280;45711;50.108;13.712;2023-07-13T02:53:47;97552.81;;;20.50;73.88
59831;BME280;45711;50.108;13.712;2023-07-13T02:56:13;97559.00;;;20.34;74.73
59831;BME280;45711;50.108;13.712;2023-07-13T02:58:38;97563.16;;;20.60;73.10
59831;BME280;45711;50.108;13.712;2023-07-13T03:01:06;97557.44;;;20.33;73.55
59831;BME280;45711;50.108;13.712;2023-07-13T03:03:33;97550.50;;;20.20;76.55
59831;BME280;45711;50.108;13.712;2023-07-13T03:06:01;97560.84;;;19.99;76.90
59831;BME280;45711;50.108;13.712;2023-07-13T03:08:27;97545.16;;;20.08;76.04
59831;BME280;45711;50.108;13.712;2023-07-13T03:10:59;97540.47;;;19.93;74.55
59831;BME280;45711;50.108;13.712;2023-07-13T03:13:25;97554.44;;;20.07;74.09
59831;BME280;45711;50.108;13.712;2023-07-13T03:15:50;97552.59;;;20.27;73.80
59831;BME280;45711;50.108;13.712;2023-07-13T03:18:16;97551.91;;;20.14;74.47
59831;BME280;45711;50.108;13.712;2023-07-13T03:20:43;97557.84;;;20.04;76.96
59831;BME280;45711;50.108;13.712;2023-07-13T03:23:09;97566.16;;;20.11;76.25
59831;BME280;45711;50.108;13.712;2023-07-13T03:25:34;97572.75;;;20.10;74.79
59831;BME280;45711;50.108;13.712;2023-07-13T03:28:00;97575.47;;;20.10;74.73
59831;BME280;45711;50.108;13.712;2023-07-13T03:30:28;97580.38;;;19.76;74.36
59831;BME280;45711;50.108;13.712;2023-07-13T03:32:53;97583.81;;;19.73;74.99
59831;BME280;45711;50.108;13.712;2023-07-13T03:35:19;97581.72;;;19.82;74.02
59831;BME280;45711;50.108;13.712;2023-07-13T03:37:46;97579.69;;;19.79;74.03
59831;BME280;45711;50.108;13.712;2023-07-13T03:40:13;97572.66;;;19.91;73.30
59831;BME280;45711;50.108;13.712;2023-07-13T03:42:38;97586.31;;;19.66;72.98
59831;BME280;45711;50.108;13.712;2023-07-13T03:45:05;97592.84;;;19.77;73.52
59831;BME280;45711;50.108;13.712;2023-07-13T03:47:31;97588.53;;;19.76;72.38
59831;BME280;45711;50.108;13.712;2023-07-13T03:49:56;97592.91;;;19.53;72.29
59831;BME280;45711;50.108;13.712;2023-07-13T03:52:22;97594.78;;;19.77;72.64
59831;BME280;45711;50.108;13.712;2023-07-13T03:54:49;97590.47;;;19.76;72.40
59831;BME280;45711;50.108;13.712;2023-07-13T03:57:15;97601.94;;;19.69;73.05
59831;BME280;45711;50.108;13.712;2023-07-13T03:59:40;97603.56;;;19.86;72.56
59831;BME280;45711;50.108;13.712;2023-07-13T04:02:07;97599.78;;;19.91;73.35
59831;BME280;45711;50.108;13.712;2023-07-13T04:04:32;97609.94;;;19.94;72.70
59831;BME280;45711;50.108;13.712;2023-07-13T04:06:58;97610.03;;;19.81;72.40
59831;BME280;45711;50.108;13.712;2023-07-13T04:09:25;97609.91;;;19.78;75.69
59831;BME280;45711;50.108;13.712;2023-07-13T04:11:52;97627.78;;;19.79;74.85
59831;BME280;45711;50.108;13.712;2023-07-13T04:14:17;97639.31;;;19.76;75.21
59831;BME280;45711;50.108;13.712;2023-07-13T04:16:43;97640.56;;;19.78;76.68
59831;BME280;45711;50.108;13.712;2023-07-13T04:19:09;97627.56;;;19.72;74.26
59831;BME280;45711;50.108;13.712;2023-07-13T04:21:36;97625.97;;;19.83;73.57
59831;BME280;45711;50.108;13.712;2023-07-13T04:24:02;97627.44;;;19.80;70.86
59831;BME280;45711;50.108;13.712;2023-07-13T04:26:29;97631.34;;;19.55;70.98
59831;BME280;45711;50.108;13.712;2023-07-13T04:28:56;97630.78;;;19.62;72.19
59831;BME280;45711;50.108;13.712;2023-07-13T04:31:22;97631.25;;;19.64;72.13
59831;BME280;45711;50.108;13.712;2023-07-13T04:33:48;97623.53;;;19.94;69.51
59831;BME280;45711;50.108;13.712;2023-07-13T04:36:14;97628.88;;;19.90;69.18
59831;BME280;45711;50.108;13.712;2023-07-13T04:38:40;97621.41;;;19.87;70.28
59831;BME280;45711;50.108;13.712;2023-07-13T04:41:07;97633.00;;;20.00;69.88
59831;BME280;45711;50.108;13.712;2023-07-13T04:43:33;97635.94;;;20.07;68.57
59831;BME280;45711;50.108;13.712;2023-07-13T04:46:05;97638.72;;;20.11;68.86
59831;BME280;45711;50.108;13.712;2023-07-13T04:48:31;97633.81;;;19.60;69.11
59831;BME280;45711;50.108;13.712;2023-07-13T04:50:58;97648.97;;;19.73;70.03
59831;BME280;45711;50.108;13.712;2023-07-13T04:53:24;97652.53;;;19.90;71.85
59831;BME280;45711;50.108;13.712;2023-07-13T04:55:50;97654.25;;;19.82;70.39
59831;BME280;45711;50.108;13.712;2023-07-13T04:58:15;97659.19;;;19.64;71.57
59831;BME280;45711;50.108;13.712;2023-07-13T05:00:41;97661.78;;;19.61;72.11
59831;BME280;45711;50.108;13.712;2023-07-13T05:03:08;97663.91;;;19.67;72.16
59831;BME280;45711;50.108;13.712;2023-07-13T05:05:34;97663.81;;;19.92;72.28
59831;BME280;45711;50.108;13.712;2023-07-13T05:08:00;97657.06;;;19.86;71.44
59831;BME280;45711;50.108;13.712;2023-07-13T05:10:26;97665.56;;;20.12;69.71
59831;BME280;45711;50.108;13.712;2023-07-13T05:12:51;97668.16;;;20.08;69.57
59831;BME280;45711;50.108;13.712;2023-07-13T05:15:17;97672.84;;;20.24;69.19
59831;BME280;45711;50.108;13.712;2023-07-13T05:17:46;97669.28;;;20.36;68.73
59831;BME280;45711;50.108;13.712;2023-07-13T05:20:14;97676.91;;;20.46;67.62
59831;BME280;45711;50.108;13.712;2023-07-13T05:22:40;97678.50;;;20.03;67.76
59831;BME280;45711;50.108;13.712;2023-07-13T05:25:06;97678.53;;;19.91;68.77
59831;BME280;45711;50.108;13.712;2023-07-13T05:27:33;97667.97;;;20.01;69.33
59831;BME280;45711;50.108;13.712;2023-07-13T05:29:58;97673.66;;;20.24;68.28
59831;BME280;45711;50.108;13.712;2023-07-13T05:32:24;97667.88;;;20.42;67.10
59831;BME280;45711;50.108;13.712;2023-07-13T05:34:50;97675.91;;;20.66;66.38
59831;BME280;45711;50.108;13.712;2023-07-13T05:37:16;97669.59;;;20.94;65.20
59831;BME280;45711;50.108;13.712;2023-07-13T05:39:42;97664.31;;;20.85;64.02
59831;BME280;45711;50.108;13.712;2023-07-13T05:42:08;97678.44;;;21.06;63.98
59831;BME280;45711;50.108;13.712;2023-07-13T05:44:33;97685.13;;;20.93;64.67
59831;BME280;45711;50.108;13.712;2023-07-13T05:46:59;97680.00;;;20.44;66.23
59831;BME280;45711;50.108;13.712;2023-07-13T05:49:24;97684.06;;;20.22;66.49
59831;BME280;45711;50.108;13.712;2023-07-13T05:51:50;97693.66;;;20.92;65.74
59831;BME280;45711;50.108;13.712;2023-07-13T05:54:17;97682.13;;;21.14;64.81
59831;BME280;45711;50.108;13.712;2023-07-13T05:56:42;97678.91;;;21.08;62.72
59831;BME280;45711;50.108;13.712;2023-07-13T05:59:08;97691.06;;;21.15;63.70
59831;BME280;45711;50.108;13.712;2023-07-13T06:01:33;97687.91;;;21.64;62.32
59831;BME280;45711;50.108;13.712;2023-07-13T06:03:59;97685.47;;;21.39;60.99
59831;BME280;45711;50.108;13.712;2023-07-13T06:06:25;97690.44;;;21.53;61.44
59831;BME280;45711;50.108;13.712;2023-07-13T06:08:50;97696.66;;;21.53;61.75
59831;BME280;45711;50.108;13.712;2023-07-13T06:11:19;97692.44;;;21.56;61.27
59831;BME280;45711;50.108;13.712;2023-07-13T06:13:45;97694.44;;;21.59;61.82
59831;BME280;45711;50.108;13.712;2023-07-13T06:16:13;97699.75;;;21.71;59.33
59831;BME280;45711;50.108;13.712;2023-07-13T06:18:39;97705.94;;;21.68;59.69
59831;BME280;45711;50.108;13.712;2023-07-13T06:21:06;97712.41;;;21.99;60.18
59831;BME280;45711;50.108;13.712;2023-07-13T06:23:32;97699.78;;;21.91;58.80
59831;BME280;45711;50.108;13.712;2023-07-13T06:25:57;97700.09;;;22.24;57.43
59831;BME280;45711;50.108;13.712;2023-07-13T06:28:24;97694.13;;;21.99;57.95
59831;BME280;45711;50.108;13.712;2023-07-13T06:30:50;97693.34;;;21.99;58.40
59831;BME280;45711;50.108;13.712;2023-07-13T06:33:15;97699.69;;;22.45;57.79
59831;BME280;45711;50.108;13.712;2023-07-13T06:35:42;97704.28;;;22.61;57.05
59831;BME280;45711;50.108;13.712;2023-07-13T06:38:07;97705.72;;;23.23;56.97
59831;BME280;45711;50.108;13.712;2023-07-13T06:40:33;97708.66;;;23.11;55.56
59831;BME280;45711;50.108;13.712;2023-07-13T06:42:58;97707.94;;;22.68;55.76
59831;BME280;45711;50.108;13.712;2023-07-13T06:45:25;97707.50;;;22.66;55.72
59831;BME280;45711;50.108;13.712;2023-07-13T06:47:51;97713.56;;;23.02;54.55
59831;BME280;45711;50.108;13.712;2023-07-13T06:50:16;97707.63;;;23.19;54.65
59831;BME280;45711;50.108;13.712;2023-07-13T06:52:42;97707.06;;;22.87;54.93
59831;BME280;45711;50.108;13.712;2023-07-13T06:55:08;97705.91;;;23.11;54.30
59831;BME280;45711;50.108;13.712;2023-07-13T06:57:34;97701.31;;;23.42;56.69
59831;BME280;45711;50.108;13.712;2023-07-13T06:59:59;97710.66;;;23.41;54.13
59831;BME280;45711;50.108;13.712;2023-07-13T07:02:26;97715.66;;;23.62;58.99
59831;BME280;45711;50.108;13.712;2023-07-13T07:04:54;97710.06;;;23.01;53.87
59831;BME280;45711;50.108;13.712;2023-07-13T07:07:20;97721.03;;;22.82;55.39
59831;BME280;45711;50.108;13.712;2023-07-13T07:09:48;97714.47;;;23.10;54.31
59831;BME280;45711;50.108;13.712;2023-07-13T07:12:14;97716.13;;;22.49;54.47
59831;BME280;45711;50.108;13.712;2023-07-13T07:14:40;97717.06;;;22.56;55.34
59831;BME280;45711;50.108;13.712;2023-07-13T07:17:05;97727.47;;;22.51;55.78
59831;BME280;45711;50.108;13.712;2023-07-13T07:19:32;97718.66;;;23.79;52.95
59831;BME280;45711;50.108;13.712;2023-07-13T07:21:59;97714.13;;;24.99;50.75
59831;BME280;45711;50.108;13.712;2023-07-13T07:24:25;97719.97;;;26.11;46.47
59831;BME280;45711;50.108;13.712;2023-07-13T07:26:51;97732.13;;;26.14;45.70
59831;BME280;45711;50.108;13.712;2023-07-13T07:29:17;97725.69;;;26.97;44.11
59831;BME280;45711;50.108;13.712;2023-07-13T07:31:42;97726.53;;;27.26;43.84
59831;BME280;45711;50.108;13.712;2023-07-13T07:34:08;97720.19;;;27.75;42.52
59831;BME280;45711;50.108;13.712;2023-07-13T07:36:35;97719.78;;;27.80;43.24
59831;BME280;45711;50.108;13.712;2023-07-13T07:39:01;97722.53;;;26.73;47.99
59831;BME280;45711;50.108;13.712;2023-07-13T07:41:26;97716.28;;;26.91;46.48
59831;BME280;45711;50.108;13.712;2023-07-13T07:43:52;97721.69;;;27.94;42.69
59831;BME280;45711;50.108;13.712;2023-07-13T07:46:23;97720.19;;;27.75;40.81
59831;BME280;45711;50.108;13.712;2023-07-13T07:48:49;97721.75;;;27.76;42.83
59831;BME280;45711;50.108;13.712;2023-07-13T07:51:15;97728.53;;;28.56;42.22
59831;BME280;45711;50.108;13.712;2023-07-13T07:53:42;97730.41;;;26.93;47.56
59831;BME280;45711;50.108;13.712;2023-07-13T07:56:08;97725.66;;;27.83;44.41
59831;BME280;45711;50.108;13.712;2023-07-13T07:58:35;97724.38;;;29.38;37.93
59831;BME280;45711;50.108;13.712;2023-07-13T08:03:32;97723.38;;;27.35;43.36
59831;BME280;45711;50.108;13.712;2023-07-13T08:05:58;97721.41;;;27.10;45.88
59831;BME280;45711;50.108;13.712;2023-07-13T08:08:25;97722.41;;;26.34;48.52
59831;BME280;45711;50.108;13.712;2023-07-13T08:10:52;97721.78;;;27.34;43.42
59831;BME280;45711;50.108;13.712;2023-07-13T08:13:21;97724.03;;;26.49;43.47
59831;BME280;45711;50.108;13.712;2023-07-13T08:15:47;97722.34;;;26.20;43.84
59831;BME280;45711;50.108;13.712;2023-07-13T08:20:42;97720.44;;;26.27;43.01
59831;BME280;45711;50.108;13.712;2023-07-13T08:23:09;97720.38;;;26.20;45.35
59831;BME280;45711;50.108;13.712;2023-07-13T08:25:35;97731.00;;;26.25;40.64
59831;BME280;45711;50.108;13.712;2023-07-13T08:28:03;97729.88;;;25.61;41.38
59831;BME280;45711;50.108;13.712;2023-07-13T08:30:29;97735.97;;;25.95;48.45
59831;BME280;45711;50.108;13.712;2023-07-13T08:32:55;97733.22;;;25.36;44.69
59831;BME280;45711;50.108;13.712;2023-07-13T08:35:21;97731.34;;;25.47;42.68
59831;BME280;45711;50.108;13.712;2023-07-13T08:37:46;97728.50;;;25.88;45.18
59831;BME280;45711;50.108;13.712;2023-07-13T08:40:13;97738.38;;;26.03;46.21
59831;BME280;45711;50.108;13.712;2023-07-13T08:42:42;97735.50;;;25.78;48.25
59831;BME280;45711;50.108;13.712;2023-07-13T08:45:18;97733.09;;;26.57;38.58
59831;BME280;45711;50.108;13.712;2023-07-13T08:47:48;97728.97;;;24.98;48.79
59831;BME280;45711;50.108;13.712;2023-07-13T08:50:24;97731.50;;;25.14;51.85
59831;BME280;45711;50.108;13.712;2023-07-13T08:55:31;97744.56;;;27.30;40.13
59831;BME280;45711;50.108;13.712;2023-07-13T09:00:40;97757.91;;;27.43;37.20
59831;BME280;45711;50.108;13.712;2023-07-13T09:03:18;97748.84;;;26.96;41.25
59831;BME280;45711;50.108;13.712;2023-07-13T09:05:48;97760.88;;;26.45;38.08
59831;BME280;45711;50.108;13.712;2023-07-13T09:08:33;97753.47;;;26.52;38.34
59831;BME280;45711;50.108;13.712;2023-07-13T09:11:05;97760.41;;;26.32;38.58
59831;BME280;45711;50.108;13.712;2023-07-13T09:16:13;97777.34;;;26.45;41.65
59831;BME280;45711;50.108;13.712;2023-07-13T09:18:42;97769.13;;;26.48;45.38
59831;BME280;45711;50.108;13.712;2023-07-13T09:21:22;97784.47;;;26.67;39.55
59831;BME280;45711;50.108;13.712;2023-07-13T09:23:50;97769.06;;;26.34;45.83
59831;BME280;45711;50.108;13.712;2023-07-13T09:26:20;97773.38;;;26.42;38.78
59831;BME280;45711;50.108;13.712;2023-07-13T09:31:23;97774.78;;;26.04;46.87
59831;BME280;45711;50.108;13.712;2023-07-13T09:33:50;97778.53;;;26.44;46.04
59831;BME280;45711;50.108;13.712;2023-07-13T09:36:19;97770.66;;;25.69;48.76
59831;BME280;45711;50.108;13.712;2023-07-13T09:38:58;97772.31;;;26.61;42.03
59831;BME280;45711;50.108;13.712;2023-07-13T09:41:35;97776.63;;;26.73;39.00
59831;BME280;45711;50.108;13.712;2023-07-13T09:44:08;97766.44;;;26.80;44.03
59831;BME280;45711;50.108;13.712;2023-07-13T09:46:40;97772.03;;;26.07;47.92
59831;BME280;45711;50.108;13.712;2023-07-13T09:49:10;97771.41;;;26.39;39.37
59831;BME280;45711;50.108;13.712;2023-07-13T09:51:36;97768.72;;;26.46;40.89
59831;BME280;45711;50.108;13.712;2023-07-13T09:56:32;97775.66;;;26.22;38.35
59831;BME280;45711;50.108;13.712;2023-07-13T09:58:58;97775.13;;;26.97;37.59
59831;BME280;45711;50.108;13.712;2023-07-13T10:01:38;97773.53;;;27.03;37.60
59831;BME280;45711;50.108;13.712;2023-07-13T10:04:11;97777.28;;;26.41;45.00
59831;BME280;45711;50.108;13.712;2023-07-13T10:06:39;97766.47;;;25.86;47.11
59831;BME280;45711;50.108;13.712;2023-07-13T10:11:39;97767.94;;;26.46;44.02
59831;BME280;45711;50.108;13.712;2023-07-13T10:14:11;97774.09;;;26.28;46.38
59831;BME280;45711;50.108;13.712;2023-07-13T10:16:39;97768.78;;;25.80;47.81
59831;BME280;45711;50.108;13.712;2023-07-13T10:19:12;97780.91;;;26.60;39.16
59831;BME280;45711;50.108;13.712;2023-07-13T10:21:46;97779.31;;;26.55;40.01
59831;BME280;45711;50.108;13.712;2023-07-13T10:24:17;97780.13;;;26.52;38.30
59831;BME280;45711;50.108;13.712;2023-07-13T10:26:50;97782.50;;;26.61;45.52
59831;BME280;45711;50.108;13.712;2023-07-13T10:29:17;97775.69;;;26.26;38.36
59831;BME280;45711;50.108;13.712;2023-07-13T10:31:46;97772.41;;;25.44;49.24
59831;BME280;45711;50.108;13.712;2023-07-13T10:34:13;97772.34;;;25.88;42.16
59831;BME280;45711;50.108;13.712;2023-07-13T10:36:41;97770.53;;;26.17;47.41
59831;BME280;45711;50.108;13.712;2023-07-13T10:39:15;97769.81;;;26.38;46.42
59831;BME280;45711;50.108;13.712;2023-07-13T10:41:44;97763.03;;;26.00;43.93
59831;BME280;45711;50.108;13.712;2023-07-13T10:44:18;97758.53;;;26.50;38.10
59831;BME280;45711;50.108;13.712;2023-07-13T10:46:48;97749.66;;;27.14;36.16
59831;BME280;45711;50.108;13.712;2023-07-13T10:49:15;97756.50;;;26.37;43.97
59831;BME280;45711;50.108;13.712;2023-07-13T10:51:42;97757.09;;;27.21;38.33
59831;BME280;45711;50.108;13.712;2023-07-13T10:54:15;97757.44;;;26.76;40.12
59831;BME280;45711;50.108;13.712;2023-07-13T10:56:44;97750.41;;;27.00;44.08
59831;BME280;45711;50.108;13.712;2023-07-13T10:59:17;97759.97;;;26.19;43.69
59831;BME280;45711;50.108;13.712;2023-07-13T11:01:54;97761.63;;;25.69;46.59
59831;BME280;45711;50.108;13.712;2023-07-13T11:04:21;97757.41;;;25.78;44.34
59831;BME280;45711;50.108;13.712;2023-07-13T11:06:50;97757.91;;;25.95;46.91
59831;BME280;45711;50.108;13.712;2023-07-13T11:09:30;97754.47;;;26.12;40.30
59831;BME280;45711;50.108;13.712;2023-07-13T11:11:59;97748.84;;;26.92;34.74
59831;BME280;45711;50.108;13.712;2023-07-13T11:14:30;97749.53;;;26.53;42.61
59831;BME280;45711;50.108;13.712;2023-07-13T11:16:58;97748.34;;;25.74;42.75
59831;BME280;45711;50.108;13.712;2023-07-13T11:19:38;97753.22;;;26.02;45.82
59831;BME280;45711;50.108;13.712;2023-07-13T11:22:15;97750.44;;;27.18;36.71
59831;BME280;45711;50.108;13.712;2023-07-13T11:24:49;97735.88;;;27.07;42.93
59831;BME280;45711;50.108;13.712;2023-07-13T11:27:22;97734.28;;;26.70;35.29
59831;BME280;45711;50.108;13.712;2023-07-13T11:29:48;97725.34;;;27.23;32.55
59831;BME280;45711;50.108;13.712;2023-07-13T11:32:30;97718.22;;;26.65;43.03
59831;BME280;45711;50.108;13.712;2023-07-13T11:34:57;97714.31;;;26.95;36.68
59831;BME280;45711;50.108;13.712;2023-07-13T11:37:23;97712.78;;;27.15;41.52
59831;BME280;45711;50.108;13.712;2023-07-13T11:39:51;97725.53;;;25.56;43.83
59831;BME280;45711;50.108;13.712;2023-07-13T11:42:23;97715.81;;;25.66;47.11
59831;BME280;45711;50.108;13.712;2023-07-13T11:44:52;97716.75;;;25.88;41.36
59831;BME280;45711;50.108;13.712;2023-07-13T11:47:20;97714.34;;;25.79;39.95
59831;BME280;45711;50.108;13.712;2023-07-13T11:49:51;97720.34;;;25.40;44.81
59831;BME280;45711;50.108;13.712;2023-07-13T11:52:19;97723.34;;;25.79;46.15
59831;BME280;45711;50.108;13.712;2023-07-13T11:54:49;97719.75;;;25.72;47.14
59831;BME280;45711;50.108;13.712;2023-07-13T11:57:23;97723.44;;;25.97;42.29
59831;BME280;45711;50.108;13.712;2023-07-13T11:59:51;97728.97;;;26.04;42.76
59831;BME280;45711;50.108;13.712;2023-07-13T12:02:25;97735.34;;;26.37;42.30
59831;BME280;45711;50.108;13.712;2023-07-13T12:04:53;97732.41;;;25.87;45.46
59831;BME280;45711;50.108;13.712;2023-07-13T12:07:19;97734.50;;;26.19;38.64
59831;BME280;45711;50.108;13.712;2023-07-13T12:09:45;97744.34;;;25.57;46.70
59831;BME280;45711;50.108;13.712;2023-07-13T12:12:12;97738.72;;;25.95;42.30
59831;BME280;45711;50.108;13.712;2023-07-13T12:14:38;97744.13;;;25.84;46.32
59831;BME280;45711;50.108;13.712;2023-07-13T12:17:09;97752.25;;;25.70;43.94
59831;BME280;45711;50.108;13.712;2023-07-13T12:19:36;97747.53;;;25.15;49.43
59831;BME280;45711;50.108;13.712;2023-07-13T12:22:11;97748.38;;;26.62;37.93
59831;BME280;45711;50.108;13.712;2023-07-13T12:24:38;97756.00;;;26.10;39.25
59831;BME280;45711;50.108;13.712;2023-07-13T12:27:05;97752.59;;;26.38;39.01
59831;BME280;45711;50.108;13.712;2023-07-13T12:29:32;97754.28;;;26.60;41.61
59831;BME280;45711;50.108;13.712;2023-07-13T12:31:58;97761.50;;;26.13;44.76
59831;BME280;45711;50.108;13.712;2023-07-13T12:34:26;97748.94;;;26.05;44.71
59831;BME280;45711;50.108;13.712;2023-07-13T12:36:53;97742.72;;;26.19;38.53
59831;BME280;45711;50.108;13.712;2023-07-13T12:39:23;97747.03;;;26.20;39.29
59831;BME280;45711;50.108;13.712;2023-07-13T12:41:49;97750.56;;;26.24;40.89
59831;BME280;45711;50.108;13.712;2023-07-13T12:44:17;97752.13;;;26.18;41.17
59831;BME280;45711;50.108;13.712;2023-07-13T12:46:55;97742.50;;;26.56;37.53
59831;BME280;45711;50.108;13.712;2023-07-13T12:49:28;97754.66;;;26.62;37.17
59831;BME280;45711;50.108;13.712;2023-07-13T12:52:02;97736.66;;;26.86;34.48
59831;BME280;45711;50.108;13.712;2023-07-13T12:54:29;97749.09;;;25.68;47.83
59831;BME280;45711;50.108;13.712;2023-07-13T12:56:57;97743.47;;;25.43;48.76
59831;BME280;45711;50.108;13.712;2023-07-13T12:59:25;97739.09;;;25.97;37.74
59831;BME280;45711;50.108;13.712;2023-07-13T13:01:54;97746.75;;;26.43;35.96
59831;BME280;45711;50.108;13.712;2023-07-13T13:04:20;97748.41;;;26.79;33.34
59831;BME280;45711;50.108;13.712;2023-07-13T13:06:47;97737.72;;;26.39;36.17
59831;BME280;45711;50.108;13.712;2023-07-13T13:09:14;97734.09;;;26.20;46.44
59831;BME280;45711;50.108;13.712;2023-07-13T13:11:42;97743.06;;;25.44;49.36
59831;BME280;45711;50.108;13.712;2023-07-13T13:14:08;97742.28;;;26.06;41.92